createdAt,value
2022-09-28T15:49:38.753Z,11.42
2022-09-28T15:52:06.046Z,11.24
2022-09-28T15:54:42.474Z,11.18
2022-09-28T15:57:37.013Z,10.95
2022-09-28T16:00:25.744Z,10.83
2022-09-28T16:03:06.769Z,10.56
2022-09-28T16:05:36.743Z,10.54
2022-09-28T16:08:04.993Z,10.43
2022-09-28T16:10:34.043Z,10.48
2022-09-28T16:13:16.027Z,10.26
2022-09-28T16:15:43.002Z,10.31
2022-09-28T16:18:12.574Z,10.26
2022-09-28T16:20:42.447Z,10.19
2022-09-28T16:23:20.826Z,10.27
2022-09-28T16:26:09.549Z,10.24
2022-09-28T16:30:30.698Z,10.15
2022-09-28T16:31:38.480Z,10.10
2022-09-28T16:34:16.875Z,10.00
2022-09-28T16:36:45.552Z,10.00
2022-09-28T16:39:13.830Z,10.14
2022-09-28T16:41:44.307Z,10.00
2022-09-28T16:44:19.769Z,9.87
2022-09-28T16:46:47.303Z,9.86
2022-09-28T16:49:18.917Z,9.69
2022-09-28T16:51:47.140Z,9.63
2022-09-28T16:54:35.944Z,9.55
2022-09-28T16:57:07.502Z,9.61
2022-09-28T16:59:34.256Z,9.80
2022-09-28T17:02:00.956Z,9.88
2022-09-28T17:04:27.905Z,9.88
2022-09-28T17:06:55.540Z,10.03
2022-09-28T17:09:25.735Z,10.17
2022-09-28T17:11:56.977Z,10.22
2022-09-28T17:14:24.158Z,10.22
2022-09-28T17:17:08.118Z,10.30
2022-09-28T17:19:37.006Z,10.24
2022-09-28T17:22:04.212Z,10.26
2022-09-28T17:24:30.837Z,10.22
2022-09-28T17:26:57.548Z,10.08
2022-09-28T17:29:24.174Z,10.06
2022-09-28T17:31:50.934Z,9.88
2022-09-28T17:34:17.815Z,9.88
2022-09-28T17:36:44.981Z,9.95
2022-09-28T17:39:17.404Z,9.86
2022-09-28T17:41:44.253Z,9.75
2022-09-28T17:44:11.165Z,9.79
2022-09-28T17:46:39.794Z,9.74
2022-09-28T17:49:09.738Z,9.77
2022-09-28T17:51:37.632Z,9.77
2022-09-28T17:54:06.929Z,9.80
2022-09-28T17:56:34.363Z,9.94
2022-09-28T17:59:05.343Z,9.87
2022-09-28T18:01:35.455Z,9.83
2022-09-28T18:04:04.053Z,9.87
2022-09-28T18:06:34.054Z,9.92
2022-09-28T18:09:03.880Z,9.81
2022-09-28T18:11:32.160Z,9.85
2022-09-28T18:13:59.104Z,9.87
2022-09-28T18:16:27.909Z,9.79
2022-09-28T18:18:54.908Z,9.85
2022-09-28T18:21:21.845Z,9.87
2022-09-28T18:23:49.221Z,9.92
2022-09-28T18:26:16.783Z,9.91
2022-09-28T18:28:43.359Z,9.74
2022-09-28T18:31:37.674Z,9.66
2022-09-28T18:34:04.513Z,9.67
2022-09-28T18:36:32.537Z,9.69
2022-09-28T18:39:01.684Z,9.66
2022-09-28T18:41:28.467Z,9.57
2022-09-28T18:44:00.569Z,9.58
2022-09-28T18:46:36.032Z,9.37
2022-09-28T18:49:04.095Z,9.45
2022-09-28T18:51:30.788Z,9.41
2022-09-28T18:53:57.801Z,9.40
2022-09-28T18:56:27.235Z,9.45
2022-09-28T18:58:54.322Z,9.40
2022-09-28T19:01:30.451Z,9.31
2022-09-28T19:04:15.721Z,9.38
2022-09-28T19:06:44.627Z,9.19
2022-09-28T19:09:12.267Z,9.26
2022-09-28T19:11:39.024Z,9.34
2022-09-28T19:14:05.692Z,9.42
2022-09-28T19:16:35.387Z,9.41
2022-09-28T19:19:03.258Z,9.50
2022-09-28T19:21:30.475Z,9.44
2022-09-28T19:24:00.559Z,9.37
2022-09-28T19:26:28.108Z,9.33
2022-09-28T19:28:58.337Z,9.36
2022-09-28T19:31:26.137Z,9.30
2022-09-28T19:33:52.827Z,9.33
2022-09-28T19:36:23.492Z,9.28
2022-09-28T19:38:52.042Z,9.22
2022-09-28T19:41:43.354Z,9.27
2022-09-28T19:44:24.470Z,9.09
2022-09-28T19:47:06.808Z,9.07
2022-09-28T19:49:37.846Z,9.05
2022-09-28T19:52:13.445Z,8.99
2022-09-28T19:54:56.826Z,8.87
2022-09-28T19:57:25.164Z,8.79
2022-09-28T19:59:53.819Z,8.90
2022-09-28T20:02:22.517Z,8.90
2022-09-28T20:07:32.860Z,8.86
2022-09-28T20:09:59.804Z,8.79
2022-09-28T20:12:26.456Z,8.79
2022-09-28T20:14:53.063Z,8.76
2022-09-28T20:17:21.792Z,8.61
2022-09-28T20:19:51.265Z,8.68
2022-09-28T20:22:18.633Z,8.71
2022-09-28T20:24:45.486Z,8.66
2022-09-28T20:27:12.126Z,8.71
2022-09-28T20:29:39.062Z,8.86
2022-09-28T20:32:05.939Z,8.89
2022-09-28T20:34:34.098Z,8.83
2022-09-28T20:37:00.907Z,8.77
2022-09-28T20:39:27.545Z,8.71
2022-09-28T20:41:55.100Z,8.90
2022-09-28T20:44:21.931Z,8.87
2022-09-28T20:46:51.983Z,8.91
2022-09-28T20:49:18.918Z,9.05
2022-09-28T20:51:45.782Z,9.17
2022-09-28T20:54:12.425Z,9.12
2022-09-28T20:56:39.352Z,8.99
2022-09-28T20:59:11.610Z,9.07
2022-09-28T21:01:38.611Z,9.10
2022-09-28T21:04:07.128Z,9.21
2022-09-28T21:06:36.696Z,9.31
2022-09-28T21:09:04.891Z,9.17
2022-09-28T21:11:32.975Z,9.10
2022-09-28T21:14:01.683Z,9.17
2022-09-28T21:16:30.037Z,9.13
2022-09-28T21:18:56.745Z,9.14
2022-09-28T21:21:26.924Z,9.05
2022-09-28T21:23:57.344Z,9.04
2022-09-28T21:26:26.440Z,9.01
2022-09-28T21:29:01.767Z,8.99
2022-09-28T21:31:48.050Z,8.82
2022-09-28T21:34:19.236Z,8.85
2022-09-28T21:36:47.032Z,8.72
2022-09-28T21:39:17.810Z,8.57
2022-09-28T21:41:44.591Z,8.47
2022-09-28T21:44:11.191Z,8.47
2022-09-28T21:46:38.566Z,8.47
2022-09-28T21:49:07.500Z,8.48
2022-09-28T21:51:35.088Z,8.42
2022-09-28T21:54:01.670Z,8.51
2022-09-28T21:56:28.782Z,8.42
2022-09-28T21:58:55.489Z,8.47
2022-09-28T22:01:23.624Z,8.51
2022-09-28T22:03:52.357Z,8.36
2022-09-28T22:06:20.737Z,8.32
2022-09-28T22:08:48.300Z,8.27
2022-09-28T22:11:19.966Z,8.29
2022-09-28T22:13:57.888Z,8.15
2022-09-28T22:16:27.779Z,8.22
2022-09-28T22:18:54.527Z,8.21
2022-09-28T22:21:26.596Z,8.28
2022-09-28T22:23:53.509Z,8.18
2022-09-28T22:26:23.357Z,8.25
2022-09-28T22:29:01.410Z,8.22
2022-09-28T22:31:33.773Z,8.25
2022-09-28T22:34:00.527Z,8.28
2022-09-28T22:36:27.337Z,8.31
2022-09-28T22:38:55.088Z,8.34
2022-09-28T22:41:22.143Z,8.29
2022-09-28T22:43:50.071Z,8.28
2022-09-28T22:46:25.087Z,8.23
2022-09-28T22:48:55.935Z,8.18
2022-09-28T22:51:23.894Z,8.13
2022-09-28T22:53:50.685Z,8.28
2022-09-28T22:56:20.044Z,8.29
2022-09-28T22:58:46.861Z,8.22
2022-09-28T23:01:19.784Z,8.22
2022-09-28T23:03:47.433Z,8.33
2022-09-28T23:06:16.933Z,8.15
2022-09-28T23:08:44.712Z,8.11
2022-09-28T23:11:11.785Z,8.04
2022-09-28T23:13:38.889Z,8.01
2022-09-28T23:16:07.832Z,8.10
2022-09-28T23:18:36.119Z,8.11
2022-09-28T23:21:08.108Z,8.14
2022-09-28T23:23:34.869Z,7.99
2022-09-28T23:26:13.349Z,8.07
2022-09-28T23:28:40.064Z,7.86
2022-09-28T23:31:30.635Z,7.85
2022-09-28T23:33:59.081Z,7.91
2022-09-28T23:36:25.820Z,7.94
2022-09-28T23:38:52.914Z,7.86
2022-09-28T23:41:19.681Z,7.75
2022-09-28T23:43:46.235Z,7.64
2022-09-28T23:46:14.515Z,7.74
2022-09-28T23:48:42.986Z,7.82
2022-09-28T23:51:09.584Z,7.71
2022-09-28T23:53:36.143Z,7.67
2022-09-28T23:56:02.886Z,7.67
2022-09-28T23:58:29.520Z,7.71
